sensor_id;sensor_type;location;lat;lon;timestamp;pressure;altitude;pressure_sealevel;temperature;humidity
8637;BME280;4356;49.068;8.658;2022-07-29T00:00:59;99614.53;;;29.16;35.37
8637;BME280;4356;49.068;8.658;2022-07-29T00:03:25;99616.69;;;29.19;35.21
8637;BME280;4356;49.068;8.658;2022-07-29T00:05:50;99615.88;;;29.18;35.37
8637;BME280;4356;49.068;8.658;2022-07-29T00:08:18;99621.13;;;29.20;35.37
8637;BME280;4356;49.068;8.658;2022-07-29T00:10:44;99618.34;;;29.20;35.28
8637;BME280;4356;49.068;8.658;2022-07-29T00:13:10;99618.97;;;29.17;35.31
8637;BME280;4356;49.068;8.658;2022-07-29T00:15:35;99613.47;;;29.12;35.26
8637;BME280;4356;49.068;8.658;2022-07-29T00:18:01;99608.47;;;29.14;35.29
8637;BME280;4356;49.068;8.658;2022-07-29T00:20:27;99611.53;;;29.12;35.54
8637;BME280;4356;49.068;8.658;2022-07-29T00:22:52;99602.97;;;29.09;35.66
8637;BME280;4356;49.068;8.658;2022-07-29T00:25:18;99613.47;;;29.12;35.33
8637;BME280;4356;49.068;8.658;2022-07-29T00:27:44;99603.53;;;29.11;35.50
8637;BME280;4356;49.068;8.658;2022-07-29T00:30:11;99603.28;;;29.07;35.85
8637;BME280;4356;49.068;8.658;2022-07-29T00:32:37;99591.38;;;29.07;35.61
8637;BME280;4356;49.068;8.658;2022-07-29T00:35:03;99589.22;;;29.04;35.86
8637;BME280;4356;49.068;8.658;2022-07-29T00:37:47;99590.31;;;29.03;35.58
8637;BME280;4356;49.068;8.658;2022-07-29T00:40:12;99587.56;;;29.03;35.79
8637;BME280;4356;49.068;8.658;2022-07-29T00:42:44;99588.69;;;29.02;35.64
8637;BME280;4356;49.068;8.658;2022-07-29T00:45:11;99584.28;;;29.01;35.92
8637;BME280;4356;49.068;8.658;2022-07-29T00:47:37;99577.63;;;29.02;36.12
8637;BME280;4356;49.068;8.658;2022-07-29T00:50:03;99570.53;;;28.96;35.80
8637;BME280;4356;49.068;8.658;2022-07-29T00:52:29;99568.88;;;28.95;36.03
8637;BME280;4356;49.068;8.658;2022-07-29T00:54:55;99570.53;;;28.96;36.10
8637;BME280;4356;49.068;8.658;2022-07-29T00:57:21;99566.16;;;28.90;36.05
8637;BME280;4356;49.068;8.658;2022-07-29T00:59:47;99588.25;;;28.95;36.02
8637;BME280;4356;49.068;8.658;2022-07-29T01:02:12;99578.59;;;28.92;36.03
8637;BME280;4356;49.068;8.658;2022-07-29T01:04:38;99582.72;;;28.95;35.81
8637;BME280;4356;49.068;8.658;2022-07-29T01:07:04;99577.75;;;28.92;36.10
8637;BME280;4356;49.068;8.658;2022-07-29T01:09:34;99583.59;;;28.90;36.13
8637;BME280;4356;49.068;8.658;2022-07-29T01:12:01;99574.25;;;28.86;36.21
8637;BME280;4356;49.068;8.658;2022-07-29T01:14:27;99588.31;;;28.90;36.25
8637;BME280;4356;49.068;8.658;2022-07-29T01:17:10;99590.56;;;28.88;36.20
8637;BME280;4356;49.068;8.658;2022-07-29T01:25:12;99582.84;;;28.85;36.30
8637;BME280;4356;49.068;8.658;2022-07-29T01:30:35;99579.84;;;28.81;36.47
8637;BME280;4356;49.068;8.658;2022-07-29T01:33:10;99585.69;;;28.80;36.43
8637;BME280;4356;49.068;8.658;2022-07-29T01:36:01;99581.28;;;28.79;36.32
8637;BME280;4356;49.068;8.658;2022-07-29T01:38:28;99573.25;;;28.77;36.59
8637;BME280;4356;49.068;8.658;2022-07-29T01:41:00;99579.63;;;28.78;36.54
8637;BME280;4356;49.068;8.658;2022-07-29T01:43:34;99571.63;;;28.76;36.73
8637;BME280;4356;49.068;8.658;2022-07-29T01:46:09;99577.69;;;28.78;36.35
8637;BME280;4356;49.068;8.658;2022-07-29T01:48:44;99573.34;;;28.72;36.27
8637;BME280;4356;49.068;8.658;2022-07-29T01:51:18;99580.75;;;28.77;36.37
8637;BME280;4356;49.068;8.658;2022-07-29T01:53:54;99569.16;;;28.75;36.75
8637;BME280;4356;49.068;8.658;2022-07-29T01:56:23;99562.34;;;28.67;36.41
8637;BME280;4356;49.068;8.658;2022-07-29T01:58:49;99571.41;;;28.73;36.41
8637;BME280;4356;49.068;8.658;2022-07-29T02:01:17;99549.19;;;28.59;36.38
8637;BME280;4356;49.068;8.658;2022-07-29T02:03:44;99575.00;;;28.73;36.39
8637;BME280;4356;49.068;8.658;2022-07-29T02:06:12;99577.25;;;28.71;36.59
8637;BME280;4356;49.068;8.658;2022-07-29T02:08:39;99569.53;;;28.68;36.32
8637;BME280;4356;49.068;8.658;2022-07-29T02:11:06;99574.47;;;28.71;36.57
8637;BME280;4356;49.068;8.658;2022-07-29T02:13:34;99574.78;;;28.70;36.30
8637;BME280;4356;49.068;8.658;2022-07-29T02:16:01;99567.34;;;28.65;36.42
8637;BME280;4356;49.068;8.658;2022-07-29T02:18:30;99569.28;;;28.65;36.67
8637;BME280;4356;49.068;8.658;2022-07-29T02:20:56;99566.28;;;28.61;36.22
8637;BME280;4356;49.068;8.658;2022-07-29T02:23:24;99563.84;;;28.60;36.60
8637;BME280;4356;49.068;8.658;2022-07-29T02:25:55;99575.97;;;28.64;36.47
8637;BME280;4356;49.068;8.658;2022-07-29T02:28:25;99566.28;;;28.61;36.63
8637;BME280;4356;49.068;8.658;2022-07-29T02:30:52;99562.22;;;28.59;36.51
8637;BME280;4356;49.068;8.658;2022-07-29T02:33:19;99565.50;;;28.61;36.41
8637;BME280;4356;49.068;8.658;2022-07-29T02:35:46;99568.53;;;28.59;36.46
8637;BME280;4356;49.068;8.658;2022-07-29T02:38:15;99566.91;;;28.58;36.46
8637;BME280;4356;49.068;8.658;2022-07-29T02:41:01;99566.06;;;28.58;36.30
8637;BME280;4356;49.068;8.658;2022-07-29T02:43:30;99570.50;;;28.59;36.42
8637;BME280;4356;49.068;8.658;2022-07-29T02:45:58;99562.78;;;28.56;36.30
8637;BME280;4356;49.068;8.658;2022-07-29T02:48:35;99569.97;;;28.57;36.27
8637;BME280;4356;49.068;8.658;2022-07-29T02:51:08;99565.84;;;28.54;36.64
8637;BME280;4356;49.068;8.658;2022-07-29T02:53:36;99564.47;;;28.52;36.34
8637;BME280;4356;49.068;8.658;2022-07-29T02:56:10;99569.19;;;28.51;36.33
8637;BME280;4356;49.068;8.658;2022-07-29T02:58:42;99567.25;;;28.52;36.41
8637;BME280;4356;49.068;8.658;2022-07-29T03:01:16;99563.41;;;28.48;36.56
8637;BME280;4356;49.068;8.658;2022-07-29T03:03:45;99569.47;;;28.50;36.67
8637;BME280;4356;49.068;8.658;2022-07-29T03:06:13;99570.28;;;28.50;36.43
8637;BME280;4356;49.068;8.658;2022-07-29T03:08:40;99566.50;;;28.46;36.13
8637;BME280;4356;49.068;8.658;2022-07-29T03:11:07;99559.59;;;28.43;36.41
8637;BME280;4356;49.068;8.658;2022-07-29T03:13:34;99570.06;;;28.47;36.30
8637;BME280;4356;49.068;8.658;2022-07-29T03:16:00;99572.81;;;28.47;36.18
8637;BME280;4356;49.068;8.658;2022-07-29T03:18:26;99575.66;;;28.41;36.49
8637;BME280;4356;49.068;8.658;2022-07-29T03:20:52;99565.72;;;28.40;36.25
8637;BME280;4356;49.068;8.658;2022-07-29T03:23:19;99566.81;;;28.39;36.36
8637;BME280;4356;49.068;8.658;2022-07-29T03:25:45;99568.50;;;28.40;36.38
8637;BME280;4356;49.068;8.658;2022-07-29T03:28:11;99560.50;;;28.39;36.22
8637;BME280;4356;49.068;8.658;2022-07-29T03:30:36;99571.03;;;28.37;36.05
8637;BME280;4356;49.068;8.658;2022-07-29T03:33:01;99569.66;;;28.34;36.26
8637;BME280;4356;49.068;8.658;2022-07-29T03:35:27;99571.28;;;28.35;36.27
8637;BME280;4356;49.068;8.658;2022-07-29T03:37:53;99576.81;;;28.35;36.46
8637;BME280;4356;49.068;8.658;2022-07-29T03:40:22;99566.97;;;28.29;36.49
8637;BME280;4356;49.068;8.658;2022-07-29T03:42:51;99575.19;;;28.34;36.53
8637;BME280;4356;49.068;8.658;2022-07-29T03:45:19;99579.59;;;28.35;36.48
8637;BME280;4356;49.068;8.658;2022-07-29T03:47:48;99574.66;;;28.32;36.42
8637;BME280;4356;49.068;8.658;2022-07-29T03:50:16;99575.25;;;28.29;36.24
8637;BME280;4356;49.068;8.658;2022-07-29T03:52:42;99582.41;;;28.30;36.29
8637;BME280;4356;49.068;8.658;2022-07-29T03:55:08;99577.19;;;28.29;36.67
8637;BME280;4356;49.068;8.658;2022-07-29T03:57:34;99579.94;;;28.29;36.59
8637;BME280;4356;49.068;8.658;2022-07-29T04:00:02;99574.78;;;28.22;36.65
8637;BME280;4356;49.068;8.658;2022-07-29T04:02:29;99569.25;;;28.22;36.35
8637;BME280;4356;49.068;8.658;2022-07-29T04:04:55;99583.31;;;28.26;36.52
8637;BME280;4356;49.068;8.658;2022-07-29T04:07:21;99585.25;;;28.25;36.44
8637;BME280;4356;49.068;8.658;2022-07-29T04:09:46;99579.47;;;28.22;36.45
8637;BME280;4356;49.068;8.658;2022-07-29T04:12:12;99579.78;;;28.20;36.47
8637;BME280;4356;49.068;8.658;2022-07-29T04:14:37;99586.94;;;28.21;36.57
8637;BME280;4356;49.068;8.658;2022-07-29T04:17:03;99587.25;;;28.20;36.68
8637;BME280;4356;49.068;8.658;2022-07-29T04:19:30;99594.41;;;28.21;36.77
8637;BME280;4356;49.068;8.658;2022-07-29T04:21:56;99595.81;;;28.18;36.82
8637;BME280;4356;49.068;8.658;2022-07-29T04:24:22;99590.34;;;28.13;36.76
8637;BME280;4356;49.068;8.658;2022-07-29T04:26:48;99586.16;;;28.16;36.77
8637;BME280;4356;49.068;8.658;2022-07-29T04:29:13;99588.94;;;28.16;36.58
8637;BME280;4356;49.068;8.658;2022-07-29T04:31:40;99579.06;;;28.10;36.91
8637;BME280;4356;49.068;8.658;2022-07-29T04:34:06;99591.69;;;28.16;36.80
8637;BME280;4356;49.068;8.658;2022-07-29T04:36:31;99585.94;;;28.12;36.48
8637;BME280;4356;49.068;8.658;2022-07-29T04:38:57;99588.69;;;28.12;36.71
8637;BME280;4356;49.068;8.658;2022-07-29T04:41:23;99584.88;;;28.08;36.61
8637;BME280;4356;49.068;8.658;2022-07-29T04:43:48;99602.22;;;28.14;36.68
8637;BME280;4356;49.068;8.658;2022-07-29T04:46:14;99592.06;;;28.09;36.68
8637;BME280;4356;49.068;8.658;2022-07-29T04:48:39;99597.28;;;28.11;36.80
8637;BME280;4356;49.068;8.658;2022-07-29T04:51:05;99592.91;;;28.05;36.66
8637;BME280;4356;49.068;8.658;2022-07-29T04:53:30;99603.94;;;28.10;36.79
8637;BME280;4356;49.068;8.658;2022-07-29T04:55:55;99602.28;;;28.09;36.72
8637;BME280;4356;49.068;8.658;2022-07-29T04:58:21;99610.56;;;28.09;36.82
8637;BME280;4356;49.068;8.658;2022-07-29T05:00:49;99597.88;;;28.08;37.03
8637;BME280;4356;49.068;8.658;2022-07-29T05:03:14;99609.72;;;28.08;36.77
8637;BME280;4356;49.068;8.658;2022-07-29T05:05:39;99608.09;;;28.07;37.08
8637;BME280;4356;49.068;8.658;2022-07-29T05:08:05;99614.16;;;28.09;37.17
8637;BME280;4356;49.068;8.658;2022-07-29T05:10:31;99624.38;;;28.09;36.96
8637;BME280;4356;49.068;8.658;2022-07-29T05:12:56;99621.91;;;28.07;37.27
8637;BME280;4356;49.068;8.658;2022-07-29T05:15:22;99623.53;;;28.08;37.21
8637;BME280;4356;49.068;8.658;2022-07-29T05:17:47;99624.06;;;28.10;37.15
8637;BME280;4356;49.068;8.658;2022-07-29T05:20:13;99614.22;;;28.04;37.17
8637;BME280;4356;49.068;8.658;2022-07-29T05:22:38;99616.97;;;28.04;37.29
8637;BME280;4356;49.068;8.658;2022-07-29T05:25:04;99620.28;;;28.06;37.14
8637;BME280;4356;49.068;8.658;2022-07-29T05:27:29;99616.16;;;28.04;37.16
8637;BME280;4356;49.068;8.658;2022-07-29T05:29:55;99629.06;;;28.08;36.90
8637;BME280;4356;49.068;8.658;2022-07-29T05:32:21;99625.50;;;28.08;37.00
8637;BME280;4356;49.068;8.658;2022-07-29T05:34:46;99626.59;;;28.07;37.07
8637;BME280;4356;49.068;8.658;2022-07-29T05:37:12;99634.31;;;28.10;37.00
8637;BME280;4356;49.068;8.658;2022-07-29T05:39:39;99634.31;;;28.10;37.52
8637;BME280;4356;49.068;8.658;2022-07-29T05:42:08;99633.50;;;28.09;37.82
8637;BME280;4356;49.068;8.658;2022-07-29T05:44:38;99638.47;;;28.07;37.30
8637;BME280;4356;49.068;8.658;2022-07-29T05:47:04;99632.38;;;28.10;37.16
8637;BME280;4356;49.068;8.658;2022-07-29T05:49:30;99632.97;;;28.07;37.57
8637;BME280;4356;49.068;8.658;2022-07-29T05:51:55;99635.19;;;28.05;37.17
8637;BME280;4356;49.068;8.658;2022-07-29T05:54:20;99648.38;;;28.13;37.23
8637;BME280;4356;49.068;8.658;2022-07-29T05:56:46;99645.31;;;28.15;37.21
8637;BME280;4356;49.068;8.658;2022-07-29T05:59:11;99636.19;;;28.14;37.29
8637;BME280;4356;49.068;8.658;2022-07-29T06:01:36;99626.03;;;28.10;37.35
8637;BME280;4356;49.068;8.658;2022-07-29T06:04:05;99634.56;;;28.13;37.69
8637;BME280;4356;49.068;8.658;2022-07-29T06:06:30;99635.38;;;28.14;37.30
8637;BME280;4356;49.068;8.658;2022-07-29T06:08:56;99646.16;;;28.15;37.28
8637;BME280;4356;49.068;8.658;2022-07-29T06:11:21;99644.78;;;28.13;37.61
8637;BME280;4356;49.068;8.658;2022-07-29T06:13:46;99651.94;;;28.14;37.77
8637;BME280;4356;49.068;8.658;2022-07-29T06:16:12;99638.47;;;28.07;38.28
8637;BME280;4356;49.068;8.658;2022-07-29T06:18:38;99648.16;;;28.10;38.22
8637;BME280;4356;49.068;8.658;2022-07-29T06:21:07;99658.31;;;28.14;38.50
8637;BME280;4356;49.068;8.658;2022-07-29T06:23:33;99648.94;;;28.10;38.42
8637;BME280;4356;49.068;8.658;2022-07-29T06:25:59;99646.78;;;28.07;38.47
8637;BME280;4356;49.068;8.658;2022-07-29T06:28:25;99654.47;;;28.10;38.53
8637;BME280;4356;49.068;8.658;2022-07-29T06:30:51;99658.06;;;28.11;38.62
8637;BME280;4356;49.068;8.658;2022-07-29T06:33:17;99648.69;;;28.07;38.60
8637;BME280;4356;49.068;8.658;2022-07-29T06:35:43;99658.66;;;28.08;38.25
8637;BME280;4356;49.068;8.658;2022-07-29T06:38:10;99661.66;;;28.11;38.53
8637;BME280;4356;49.068;8.658;2022-07-29T06:40:36;99658.94;;;28.06;38.22
8637;BME280;4356;49.068;8.658;2022-07-29T06:43:20;99673.00;;;28.10;38.46
8637;BME280;4356;49.068;8.658;2022-07-29T06:45:45;99671.59;;;28.12;37.92
8637;BME280;4356;49.068;8.658;2022-07-29T06:48:11;99671.03;;;28.10;37.88
8637;BME280;4356;49.068;8.658;2022-07-29T06:50:37;99666.69;;;28.04;37.69
8637;BME280;4356;49.068;8.658;2022-07-29T06:53:03;99670.00;;;28.06;37.73
8637;BME280;4356;49.068;8.658;2022-07-29T06:55:28;99671.34;;;28.09;37.45
8637;BME280;4356;49.068;8.658;2022-07-29T06:57:53;99673.03;;;28.05;37.33
8637;BME280;4356;49.068;8.658;2022-07-29T07:00:25;99681.06;;;28.06;37.05
8637;BME280;4356;49.068;8.658;2022-07-29T07:02:50;99670.56;;;28.03;36.87
8637;BME280;4356;49.068;8.658;2022-07-29T07:05:19;99672.22;;;28.04;36.73
8637;BME280;4356;49.068;8.658;2022-07-29T07:07:44;99679.38;;;28.05;36.80
8637;BME280;4356;49.068;8.658;2022-07-29T07:10:10;99668.69;;;27.99;36.93
8637;BME280;4356;49.068;8.658;2022-07-29T07:12:35;99681.31;;;28.05;36.99
8637;BME280;4356;49.068;8.658;2022-07-29T07:15:01;99684.09;;;28.05;36.74
8637;BME280;4356;49.068;8.658;2022-07-29T07:17:26;99678.84;;;28.03;36.47
8637;BME280;4356;49.068;8.658;2022-07-29T07:19:52;99678.31;;;28.01;36.66
8637;BME280;4356;49.068;8.658;2022-07-29T07:22:17;99674.22;;;27.99;36.65
8637;BME280;4356;49.068;8.658;2022-07-29T07:24:43;99679.97;;;28.02;36.56
8637;BME280;4356;49.068;8.658;2022-07-29T07:27:08;99689.91;;;28.03;36.81
8637;BME280;4356;49.068;8.658;2022-07-29T07:29:33;99680.53;;;27.99;36.95
8637;BME280;4356;49.068;8.658;2022-07-29T07:31:59;99679.97;;;28.02;36.96
8637;BME280;4356;49.068;8.658;2022-07-29T07:34:24;99678.84;;;28.03;36.94
8637;BME280;4356;49.068;8.658;2022-07-29T07:36:50;99686.31;;;28.03;37.21
8637;BME280;4356;49.068;8.658;2022-07-29T07:39:15;99681.31;;;28.05;37.23
8637;BME280;4356;49.068;8.658;2022-07-29T07:41:40;99689.03;;;28.08;37.04
8637;BME280;4356;49.068;8.658;2022-07-29T07:44:06;99694.28;;;28.09;37.11
8637;BME280;4356;49.068;8.658;2022-07-29T07:46:31;99686.03;;;28.04;37.38
8637;BME280;4356;49.068;8.658;2022-07-29T07:48:57;99703.09;;;28.11;37.55
8637;BME280;4356;49.068;8.658;2022-07-29T07:51:22;99688.22;;;28.07;37.68
8637;BME280;4356;49.068;8.658;2022-07-29T07:53:48;99691.47;;;28.14;37.57
8637;BME280;4356;49.068;8.658;2022-07-29T07:56:15;99697.53;;;28.16;37.77
8637;BME280;4356;49.068;8.658;2022-07-29T07:58:41;99690.88;;;28.17;37.80
8637;BME280;4356;49.068;8.658;2022-07-29T08:01:07;99685.88;;;28.19;37.81
8637;BME280;4356;49.068;8.658;2022-07-29T08:03:33;99699.66;;;28.24;38.10
8637;BME280;4356;49.068;8.658;2022-07-29T08:05:58;99693.84;;;28.26;37.68
8637;BME280;4356;49.068;8.658;2022-07-29T08:08:24;99698.25;;;28.27;37.81
8637;BME280;4356;49.068;8.658;2022-07-29T08:10:52;99688.03;;;28.27;38.03
8637;BME280;4356;49.068;8.658;2022-07-29T08:13:19;99694.63;;;28.31;38.04
8637;BME280;4356;49.068;8.658;2022-07-29T08:15:45;99688.03;;;28.27;38.09
8637;BME280;4356;49.068;8.658;2022-07-29T08:18:12;99698.72;;;28.34;37.89
8637;BME280;4356;49.068;8.658;2022-07-29T08:20:40;99706.47;;;28.32;38.36
8637;BME280;4356;49.068;8.658;2022-07-29T08:23:07;99702.84;;;28.36;38.01
8637;BME280;4356;49.068;8.658;2022-07-29T08:25:35;99711.69;;;28.38;38.08
8637;BME280;4356;49.068;8.658;2022-07-29T08:28:01;99708.63;;;28.40;37.74
8637;BME280;4356;49.068;8.658;2022-07-29T08:30:27;99708.88;;;28.43;38.00
8637;BME280;4356;49.068;8.658;2022-07-29T08:32:52;99702.78;;;28.41;38.10
8637;BME280;4356;49.068;8.658;2022-07-29T08:35:19;99697.31;;;28.36;38.01
8637;BME280;4356;49.068;8.658;2022-07-29T08:37:44;99714.03;;;28.50;37.87
8637;BME280;4356;49.068;8.658;2022-07-29T08:40:10;99713.78;;;28.47;37.68
8637;BME280;4356;49.068;8.658;2022-07-29T08:42:36;99708.00;;;28.48;37.93
8637;BME280;4356;49.068;8.658;2022-07-29T08:45:03;99709.94;;;28.48;37.83
8637;BME280;4356;49.068;8.658;2022-07-29T08:47:29;99723.72;;;28.53;37.82
8637;BME280;4356;49.068;8.658;2022-07-29T08:49:54;99725.91;;;28.56;37.84
8637;BME280;4356;49.068;8.658;2022-07-29T08:52:21;99705.22;;;28.53;37.79
8637;BME280;4356;49.068;8.658;2022-07-29T08:54:47;99714.28;;;28.59;38.00
8637;BME280;4356;49.068;8.658;2022-07-29T08:57:14;99705.22;;;28.53;37.81
8637;BME280;4356;49.068;8.658;2022-07-29T08:59:42;99712.31;;;28.59;37.93
8637;BME280;4356;49.068;8.658;2022-07-29T09:02:15;99708.50;;;28.55;37.59
8637;BME280;4356;49.068;8.658;2022-07-29T09:04:44;99708.97;;;28.62;37.54
8637;BME280;4356;49.068;8.658;2022-07-29T09:07:16;99699.84;;;28.62;37.02
8637;BME280;4356;49.068;8.658;2022-07-29T09:09:43;99714.38;;;28.72;37.05
8637;BME280;4356;49.068;8.658;2022-07-29T09:12:12;99711.31;;;28.74;36.86
8637;BME280;4356;49.068;8.658;2022-07-29T09:14:38;99704.69;;;28.75;37.02
8637;BME280;4356;49.068;8.658;2022-07-29T09:17:04;99710.97;;;28.80;36.46
8637;BME280;4356;49.068;8.658;2022-07-29T09:19:35;99715.09;;;28.83;36.32
8637;BME280;4356;49.068;8.658;2022-07-29T09:22:06;99707.84;;;28.87;35.96
8637;BME280;4356;49.068;8.658;2022-07-29T09:27:00;99711.84;;;28.99;35.48
8637;BME280;4356;49.068;8.658;2022-07-29T09:29:26;99715.97;;;29.02;36.20
8637;BME280;4356;49.068;8.658;2022-07-29T09:31:54;99718.97;;;29.05;35.55
8637;BME280;4356;49.068;8.658;2022-07-29T09:34:24;99717.25;;;29.09;35.42
8637;BME280;4356;49.068;8.658;2022-07-29T09:36:53;99706.47;;;29.13;35.56
8637;BME280;4356;49.068;8.658;2022-07-29T09:39:37;99704.75;;;29.17;35.37
8637;BME280;4356;49.068;8.658;2022-07-29T09:42:05;99706.59;;;29.21;35.33
8637;BME280;4356;49.068;8.658;2022-07-29T09:44:48;99705.72;;;29.26;35.10
8637;BME280;4356;49.068;8.658;2022-07-29T09:47:15;99697.34;;;29.31;34.65
8637;BME280;4356;49.068;8.658;2022-07-29T09:49:55;99693.38;;;29.37;34.89
8637;BME280;4356;49.068;8.658;2022-07-29T09:52:25;99696.13;;;29.37;34.46
8637;BME280;4356;49.068;8.658;2022-07-29T09:54:51;99689.78;;;29.36;34.25
8637;BME280;4356;49.068;8.658;2022-07-29T09:57:27;99696.00;;;29.47;34.23
8637;BME280;4356;49.068;8.658;2022-07-29T09:59:58;99694.56;;;29.50;34.21
8637;BME280;4356;49.068;8.658;2022-07-29T10:02:28;99692.84;;;29.54;34.04
8637;BME280;4356;49.068;8.658;2022-07-29T10:04:53;99695.25;;;29.60;33.89
8637;BME280;4356;49.068;8.658;2022-07-29T10:07:19;99695.47;;;29.64;33.96
8637;BME280;4356;49.068;8.658;2022-07-29T10:09:53;99697.59;;;29.72;33.85
8637;BME280;4356;49.068;8.658;2022-07-29T10:12:19;99699.47;;;29.76;33.48
8637;BME280;4356;49.068;8.658;2022-07-29T10:14:45;99696.09;;;29.79;33.36
8637;BME280;4356;49.068;8.658;2022-07-29T10:17:11;99688.28;;;29.81;33.42
8637;BME280;4356;49.068;8.658;2022-07-29T10:19:38;99690.66;;;29.88;33.53
8637;BME280;4356;49.068;8.658;2022-07-29T10:22:06;99699.44;;;29.95;32.89
8637;BME280;4356;49.068;8.658;2022-07-29T10:24:33;99687.84;;;29.93;33.19
8637;BME280;4356;49.068;8.658;2022-07-29T10:27:00;99690.72;;;30.01;32.90
8637;BME280;4356;49.068;8.658;2022-07-29T10:29:27;99692.88;;;30.04;33.04
8637;BME280;4356;49.068;8.658;2022-07-29T10:38:10;99686.34;;;30.14;32.67
8637;BME280;4356;49.068;8.658;2022-07-29T10:43:47;99681.84;;;30.18;32.93
8637;BME280;4356;49.068;8.658;2022-07-29T10:46:14;99685.66;;;30.22;32.64
8637;BME280;4356;49.068;8.658;2022-07-29T10:52:07;99675.03;;;30.29;32.75
8637;BME280;4356;49.068;8.658;2022-07-29T10:54:40;99673.56;;;30.31;32.25
8637;BME280;4356;49.068;8.658;2022-07-29T11:10:39;99674.94;;;30.48;32.29
8637;BME280;4356;49.068;8.658;2022-07-29T11:13:05;99663.03;;;30.47;32.45
8637;BME280;4356;49.068;8.658;2022-07-29T11:15:57;99667.97;;;30.50;32.16
8637;BME280;4356;49.068;8.658;2022-07-29T11:18:23;99664.03;;;30.51;32.59
8637;BME280;4356;49.068;8.658;2022-07-29T11:20:50;99646.09;;;30.49;32.26
8637;BME280;4356;49.068;8.658;2022-07-29T11:31:32;99642.72;;;30.65;31.97
8637;BME280;4356;49.068;8.658;2022-07-29T11:34:25;99634.59;;;30.69;32.26
8637;BME280;4356;49.068;8.658;2022-07-29T11:40:08;99646.09;;;30.76;31.27
8637;BME280;4356;49.068;8.658;2022-07-29T11:45:01;99648.47;;;30.82;31.14
8637;BME280;4356;49.068;8.658;2022-07-29T11:47:30;99642.91;;;30.82;31.55
8637;BME280;4356;49.068;8.658;2022-07-29T11:49:56;99644.25;;;30.85;31.37
8637;BME280;4356;49.068;8.658;2022-07-29T11:52:23;99640.53;;;30.89;31.52
8637;BME280;4356;49.068;8.658;2022-07-29T11:54:50;99645.19;;;30.94;31.10
8637;BME280;4356;49.068;8.658;2022-07-29T11:57:17;99644.75;;;31.00;31.25
8637;BME280;4356;49.068;8.658;2022-07-29T11:59:45;99639.72;;;31.02;30.90
8637;BME280;4356;49.068;8.658;2022-07-29T12:02:11;99638.47;;;31.08;30.93
8637;BME280;4356;49.068;8.658;2022-07-29T12:04:53;99640.81;;;31.15;31.00
8637;BME280;4356;49.068;8.658;2022-07-29T12:07:30;99643.78;;;31.18;30.33
8637;BME280;4356;49.068;8.658;2022-07-29T12:09:57;99631.88;;;31.18;30.37
8637;BME280;4356;49.068;8.658;2022-07-29T12:12:23;99626.81;;;31.20;30.05
8637;BME280;4356;49.068;8.658;2022-07-29T12:14:49;99632.47;;;31.28;29.94
8637;BME280;4356;49.068;8.658;2022-07-29T12:17:32;99635.09;;;31.33;30.16
8637;BME280;4356;49.068;8.658;2022-07-29T12:19:59;99643.16;;;31.35;30.51
8637;BME280;4356;49.068;8.658;2022-07-29T12:22:34;99640.25;;;31.40;30.13
8637;BME280;4356;49.068;8.658;2022-07-29T12:25:04;99646.31;;;31.42;30.32
8637;BME280;4356;49.068;8.658;2022-07-29T12:27:31;99645.72;;;31.45;29.95
8637;BME280;4356;49.068;8.658;2022-07-29T12:30:04;99647.34;;;31.46;30.50
8637;BME280;4356;49.068;8.658;2022-07-29T12:32:49;99646.19;;;31.47;30.07
8637;BME280;4356;49.068;8.658;2022-07-29T12:35:17;99638.38;;;31.49;30.36
8637;BME280;4356;49.068;8.658;2022-07-29T12:37:46;99641.97;;;31.50;29.91
8637;BME280;4356;49.068;8.658;2022-07-29T12:40:14;99629.53;;;31.47;30.24
8637;BME280;4356;49.068;8.658;2022-07-29T12:43:27;99632.31;;;31.47;30.36
8637;BME280;4356;49.068;8.658;2022-07-29T12:45:30;99630.34;;;31.48;30.25
8637;BME280;4356;49.068;8.658;2022-07-29T12:47:56;99634.97;;;31.52;30.29
8637;BME280;4356;49.068;8.658;2022-07-29T12:50:25;99638.88;;;31.51;30.29
8637;BME280;4356;49.068;8.658;2022-07-29T12:52:51;99637.44;;;31.54;30.05
8637;BME280;4356;49.068;8.658;2022-07-29T12:55:40;99636.59;;;31.53;29.92
8637;BME280;4356;49.068;8.658;2022-07-29T12:58:08;99629.94;;;31.54;30.21
8637;BME280;4356;49.068;8.658;2022-07-29T13:00:34;99633.50;;;31.55;29.89
8637;BME280;4356;49.068;8.658;2022-07-29T13:03:00;99636.81;;;31.57;29.85
8637;BME280;4356;49.068;8.658;2022-07-29T13:05:45;99640.72;;;31.56;30.29
8637;BME280;4356;49.068;8.658;2022-07-29T13:08:15;99642.88;;;31.59;30.02
8637;BME280;4356;49.068;8.658;2022-07-29T13:10:42;99635.69;;;31.58;30.31
8637;BME280;4356;49.068;8.658;2022-07-29T13:13:12;99645.31;;;31.60;30.21
8637;BME280;4356;49.068;8.658;2022-07-29T13:15:43;99640.91;;;31.59;30.11
8637;BME280;4356;49.068;8.658;2022-07-29T13:18:32;99650.28;;;31.63;29.87
8637;BME280;4356;49.068;8.658;2022-07-29T13:21:13;99653.84;;;31.64;29.74
8637;BME280;4356;49.068;8.658;2022-07-29T13:23:39;99642.53;;;31.60;30.13
8637;BME280;4356;49.068;8.658;2022-07-29T13:26:08;99653.03;;;31.63;29.95
8637;BME280;4356;49.068;8.658;2022-07-29T13:28:34;99651.06;;;31.64;30.10
8637;BME280;4356;49.068;8.658;2022-07-29T13:30:59;99646.47;;;31.59;29.60
8637;BME280;4356;49.068;8.658;2022-07-29T13:33:25;99649.25;;;31.59;29.50
8637;BME280;4356;49.068;8.658;2022-07-29T13:35:50;99642.03;;;31.58;29.96
8637;BME280;4356;49.068;8.658;2022-07-29T13:38:16;99648.28;;;31.64;29.21
8637;BME280;4356;49.068;8.658;2022-07-29T13:40:42;99654.69;;;31.64;29.28
8637;BME280;4356;49.068;8.658;2022-07-29T13:43:11;99652.91;;;31.68;28.70
8637;BME280;4356;49.068;8.658;2022-07-29T13:45:36;99652.72;;;31.65;28.54
8637;BME280;4356;49.068;8.658;2022-07-29T13:48:02;99640.28;;;31.62;28.22
8637;BME280;4356;49.068;8.658;2022-07-29T13:50:28;99651.56;;;31.66;28.31
8637;BME280;4356;49.068;8.658;2022-07-29T13:52:54;99646.34;;;31.64;28.58
8637;BME280;4356;49.068;8.658;2022-07-29T13:55:19;99638.13;;;31.59;28.32
8637;BME280;4356;49.068;8.658;2022-07-29T13:57:45;99640.59;;;31.61;28.20
8637;BME280;4356;49.068;8.658;2022-07-29T14:00:11;99639.25;;;31.58;28.07
8637;BME280;4356;49.068;8.658;2022-07-29T14:02:37;99647.78;;;31.62;28.11
8637;BME280;4356;49.068;8.658;2022-07-29T14:05:07;99641.63;;;31.65;27.94
8637;BME280;4356;49.068;8.658;2022-07-29T14:07:33;99643.88;;;31.63;28.41
8637;BME280;4356;49.068;8.658;2022-07-29T14:09:58;99631.63;;;31.64;28.19
8637;BME280;4356;49.068;8.658;2022-07-29T14:12:24;99639.34;;;31.67;28.15
8637;BME280;4356;49.068;8.658;2022-07-29T14:14:49;99637.06;;;31.69;28.28
8637;BME280;4356;49.068;8.658;2022-07-29T14:17:15;99636.25;;;31.68;28.32